Time;durP1;ratioP1;P1;durP2;ratioP2;P2;SDS_P1;SDS_P2;PMS_P1;PMS_P2;Temp;Humidity;BMP_temperature;BMP_pressure;BME280_temperature;BME280_humidity;BME280_pressure;Samples;Min_cycle;Max_cycle;Signal;HPM_P1;HPM_P2
2023/01/15 00:01:28;;;;;;;3.45;0.68;;;7.00;99.90;;;;;;5062417;28;20064;-76
2023/01/15 00:03:57;;;;;;;2.15;0.60;;;7.00;99.90;;;;;;5066155;28;20032;-77
2023/01/15 00:06:24;;;;;;;1.90;0.90;;;7.00;99.90;;;;;;5064166;28;20031;-76
2023/01/15 00:08:51;;;;;;;1.38;0.50;;;7.00;99.90;;;;;;5053818;28;20036;-76
2023/01/15 00:11:18;;;;;;;0.80;0.70;;;7.00;99.90;;;;;;5053290;28;20078;-76
2023/01/15 00:13:44;;;;;;;1.73;0.60;;;7.10;99.90;;;;;;5072412;28;20032;-76
2023/01/15 00:16:13;;;;;;;1.90;0.70;;;7.10;99.90;;;;;;5051985;28;20032;-77
2023/01/15 00:18:39;;;;;;;1.55;0.70;;;7.10;99.90;;;;;;5062821;28;20764;-77
2023/01/15 00:21:08;;;;;;;4.80;1.20;;;7.10;99.90;;;;;;5062901;28;20044;-76
2023/01/15 00:29:06;;;;;;;1.48;0.70;;;7.20;99.90;;;;;;5071920;28;20581;-76
2023/01/15 00:31:34;;;;;;;0.75;0.65;;;7.20;99.90;;;;;;5074616;28;20024;-77
2023/01/15 00:34:01;;;;;;;0.75;0.60;;;7.30;99.90;;;;;;5074187;28;20040;-77
2023/01/15 00:36:27;;;;;;;1.52;0.85;;;7.30;99.90;;;;;;5074417;28;20362;-77
2023/01/15 00:38:53;;;;;;;0.93;0.80;;;7.30;99.90;;;;;;5060706;28;20404;-77
2023/01/15 00:41:19;;;;;;;2.67;0.70;;;7.30;99.90;;;;;;5060180;28;20059;-77
2023/01/15 00:43:45;;;;;;;0.88;0.65;;;7.30;99.90;;;;;;5062250;28;20465;-77
2023/01/15 00:46:12;;;;;;;3.38;0.80;;;7.30;99.90;;;;;;5062018;28;20611;-77
2023/01/15 00:48:38;;;;;;;1.45;0.60;;;7.30;99.90;;;;;;5071539;28;20032;-77
2023/01/15 00:51:06;;;;;;;1.38;0.60;;;7.40;99.90;;;;;;5074325;28;20076;-77
2023/01/15 00:53:32;;;;;;;0.60;0.50;;;7.30;99.90;;;;;;5063564;28;20036;-77
2023/01/15 00:55:59;;;;;;;1.20;0.68;;;7.40;99.90;;;;;;5054183;28;20037;-77
2023/01/15 00:58:27;;;;;;;2.22;0.75;;;7.40;99.90;;;;;;5048069;28;20042;-77
2023/01/15 01:00:55;;;;;;;1.15;0.60;;;7.40;99.90;;;;;;5073826;28;20067;-76
2023/01/15 01:03:21;;;;;;;1.00;0.80;;;7.30;99.90;;;;;;5056559;28;20048;-77
2023/01/15 01:05:47;;;;;;;2.08;0.70;;;7.40;99.90;;;;;;5049774;28;20051;-77
2023/01/15 01:08:14;;;;;;;1.40;0.63;;;7.40;99.90;;;;;;5049708;28;20500;-77
2023/01/15 01:10:40;;;;;;;0.80;0.57;;;7.40;99.90;;;;;;5054864;28;20094;-77
2023/01/15 01:13:06;;;;;;;1.83;0.60;;;7.40;99.90;;;;;;5073865;28;20060;-77
2023/01/15 01:15:33;;;;;;;0.90;0.50;;;7.40;99.90;;;;;;5073650;28;20537;-77
2023/01/15 01:18:01;;;;;;;1.10;0.60;;;7.40;99.90;;;;;;5066468;28;20098;-77
2023/01/15 01:20:27;;;;;;;1.10;0.63;;;7.40;99.90;;;;;;5070126;28;20036;-77
2023/01/15 01:22:53;;;;;;;0.60;0.50;;;7.40;99.90;;;;;;5070297;28;20123;-78
2023/01/15 01:25:19;;;;;;;3.42;0.90;;;7.40;99.90;;;;;;5070411;28;20481;-77
2023/01/15 01:27:46;;;;;;;2.00;0.68;;;7.40;99.90;;;;;;5070690;28;20090;-77
2023/01/15 01:30:13;;;;;;;1.35;0.65;;;7.40;99.90;;;;;;5070457;28;20024;-77
2023/01/15 01:32:42;;;;;;;0.93;0.60;;;7.40;99.90;;;;;;5037494;28;20699;-77
2023/01/15 01:35:08;;;;;;;4.15;0.70;;;7.30;99.90;;;;;;5057165;28;20041;-77
2023/01/15 01:37:35;;;;;;;1.33;0.63;;;7.30;99.90;;;;;;5051535;28;20039;-77
2023/01/15 01:40:02;;;;;;;0.47;0.40;;;7.30;99.90;;;;;;5046145;28;20029;-77
2023/01/15 01:42:28;;;;;;;0.50;0.40;;;7.30;99.90;;;;;;5051172;28;20029;-77
2023/01/15 01:45:00;;;;;;;1.23;0.45;;;7.30;99.90;;;;;;5036852;28;20093;-78
2023/01/15 01:47:28;;;;;;;1.40;0.70;;;7.40;99.90;;;;;;5069227;28;20027;-77
2023/01/15 01:50:01;;;;;;;1.05;0.68;;;7.40;99.90;;;;;;5039950;28;20036;-77
2023/01/15 01:52:31;;;;;;;1.40;0.60;;;7.40;99.90;;;;;;5072541;28;20081;-77
2023/01/15 01:54:58;;;;;;;2.90;0.63;;;7.40;99.90;;;;;;5046026;28;20032;-77
2023/01/15 01:57:24;;;;;;;0.68;0.52;;;7.50;99.90;;;;;;5071329;28;20036;-77
2023/01/15 01:59:51;;;;;;;0.95;0.50;;;7.50;99.90;;;;;;5061438;28;20040;-76
2023/01/15 02:02:20;;;;;;;0.73;0.63;;;7.40;99.90;;;;;;5066197;28;20056;-77
2023/01/15 02:04:47;;;;;;;1.02;0.50;;;7.40;99.90;;;;;;5054191;28;20021;-77
2023/01/15 02:07:13;;;;;;;0.75;0.40;;;7.40;99.90;;;;;;5053923;28;20429;-78
2023/01/15 02:09:39;;;;;;;1.65;0.50;;;7.40;99.90;;;;;;5058509;28;20028;-78
2023/01/15 02:12:21;;;;;;;1.20;0.45;;;7.40;99.90;;;;;;5056308;28;20113;-78
2023/01/15 02:15:08;;;;;;;0.55;0.50;;;7.40;99.90;;;;;;5053528;28;20657;-77
2023/01/15 02:17:47;;;;;;;0.63;0.40;;;7.30;99.90;;;;;;5070582;28;20021;-77
2023/01/15 02:20:29;;;;;;;0.70;0.40;;;7.40;99.90;;;;;;5070229;28;20491;-77
2023/01/15 02:23:20;;;;;;;0.40;0.40;;;7.40;99.90;;;;;;5055683;28;20060;-78
2023/01/15 02:26:07;;;;;;;0.40;0.40;;;7.50;99.90;;;;;;5071568;28;20735;-76
2023/01/15 02:28:34;;;;;;;;;;;7.50;99.90;;;;;;5045302;28;20603;-75
2023/01/15 02:31:09;;;;;;;0.90;0.38;;;7.50;99.90;;;;;;5066006;28;19963;-77
2023/01/15 02:33:42;;;;;;;1.77;0.38;;;7.50;99.90;;;;;;5031937;28;20025;-77
2023/01/15 02:36:13;;;;;;;0.90;0.43;;;7.50;99.90;;;;;;5060289;28;20661;-78
2023/01/15 02:38:48;;;;;;;1.27;0.50;;;7.50;99.90;;;;;;5055534;28;20736;-78
2023/01/15 02:41:19;;;;;;;1.73;0.55;;;7.60;99.90;;;;;;5054065;28;20119;-77
2023/01/15 02:43:54;;;;;;;0.30;0.30;;;7.60;99.90;;;;;;5053756;28;20025;-77
2023/01/15 02:46:28;;;;;;;0.40;0.40;;;7.60;99.90;;;;;;5058564;28;20393;-76
2023/01/15 02:48:57;;;;;;;0.47;0.25;;;7.60;99.90;;;;;;5058989;28;20025;-77
2023/01/15 02:51:33;;;;;;;0.93;0.28;;;7.60;99.90;;;;;;5057675;28;20024;-76
2023/01/15 02:54:02;;;;;;;2.15;0.30;;;7.60;99.90;;;;;;5057398;28;20039;-75
2023/01/15 02:56:34;;;;;;;3.25;0.80;;;7.70;99.90;;;;;;5055759;28;20027;-77
2023/01/15 02:59:06;;;;;;;0.30;0.30;;;7.70;99.90;;;;;;5059111;28;20555;-77
2023/01/15 03:01:40;;;;;;;0.38;0.30;;;7.80;99.90;;;;;;5048368;28;20056;-77
2023/01/15 03:04:12;;;;;;;0.95;0.30;;;7.80;99.90;;;;;;5046836;28;20384;-77
2023/01/15 03:06:53;;;;;;;2.25;0.47;;;7.80;99.90;;;;;;5069078;28;20109;-78
2023/01/15 03:09:21;;;;;;;0.40;0.32;;;7.80;99.90;;;;;;5051534;28;20021;-77
2023/01/15 03:12:01;;;;;;;0.47;0.30;;;7.90;99.90;;;;;;5051542;28;20029;-78
2023/01/15 03:14:43;;;;;;;0.40;0.32;;;7.80;99.90;;;;;;5050796;28;20028;-76
2023/01/15 03:17:21;;;;;;;0.73;0.28;;;7.90;99.90;;;;;;5069459;28;20097;-78
2023/01/15 03:20:08;;;;;;;0.47;0.32;;;7.80;99.90;;;;;;5035453;28;20037;-76
2023/01/15 03:22:37;;;;;;;0.30;0.30;;;7.90;99.90;;;;;;5072660;28;20036;-78
2023/01/15 03:25:15;;;;;;;1.85;0.40;;;7.90;99.90;;;;;;5072850;28;20036;-77
2023/01/15 03:27:46;;;;;;;0.30;0.30;;;8.00;99.90;;;;;;5066615;28;20517;-76
2023/01/15 03:30:17;;;;;;;0.20;0.20;;;8.00;99.90;;;;;;5055238;28;20028;-77
2023/01/15 03:32:44;;;;;;;0.75;0.30;;;8.00;99.90;;;;;;5051373;28;20485;-77
2023/01/15 03:35:41;;;;;;;0.50;0.20;;;8.00;99.90;;;;;;5056956;28;20047;-78
2023/01/15 03:38:08;;;;;;;0.85;0.25;;;7.90;99.90;;;;;;5062930;28;20025;-77
2023/01/15 03:40:38;;;;;;;0.30;0.30;;;7.90;99.90;;;;;;5044515;28;20028;-76
2023/01/15 03:46:04;;;;;;;0.32;0.30;;;7.90;99.90;;;;;;5051918;28;20068;-77
2023/01/15 03:48:35;;;;;;;0.20;0.10;;;7.90;99.90;;;;;;5066798;28;20039;-78
2023/01/15 03:51:35;;;;;;;0.30;0.20;;;7.90;99.90;;;;;;5047314;28;20028;-76
2023/01/15 03:54:06;;;;;;;0.43;0.20;;;7.90;99.90;;;;;;5048633;28;20079;-77
2023/01/15 03:57:13;;;;;;;0.40;0.30;;;7.90;99.90;;;;;;5046609;28;20052;-76
2023/01/15 03:59:53;;;;;;;0.30;0.20;;;7.90;99.90;;;;;;5015578;28;20029;-77
2023/01/15 04:02:21;;;;;;;0.57;0.20;;;7.90;99.90;;;;;;5042945;28;20130;-77
2023/01/15 04:04:50;;;;;;;0.50;0.30;;;7.90;99.90;;;;;;5050390;28;20135;-76
2023/01/15 04:07:18;;;;;;;0.10;0.10;;;8.00;99.90;;;;;;5044817;28;20028;-77
2023/01/15 04:09:45;;;;;;;0.13;0.13;;;7.90;99.90;;;;;;5029923;28;20028;-77
2023/01/15 04:12:11;;;;;;;0.80;0.40;;;7.90;99.90;;;;;;5067660;28;20408;-77
2023/01/15 04:14:44;;;;;;;0.98;0.30;;;7.90;99.90;;;;;;5057614;28;20116;-77
2023/01/15 04:17:16;;;;;;;0.47;0.30;;;7.90;99.90;;;;;;5053537;28;20025;-77
2023/01/15 04:19:43;;;;;;;0.80;0.30;;;7.90;99.90;;;;;;5054870;28;20032;-78
2023/01/15 04:22:10;;;;;;;0.77;0.22;;;7.80;99.90;;;;;;5041647;28;20678;-75
2023/01/15 04:24:36;;;;;;;0.65;0.20;;;7.90;99.90;;;;;;5064774;28;20017;-77
2023/01/15 04:27:02;;;;;;;1.20;0.15;;;7.80;99.90;;;;;;5067747;28;20037;-77
2023/01/15 04:29:28;;;;;;;1.15;0.30;;;7.80;99.90;;;;;;5067741;28;20480;-76
2023/01/15 04:31:56;;;;;;;0.55;0.55;;;7.80;99.90;;;;;;5067579;28;20039;-77
2023/01/15 04:34:27;;;;;;;0.68;0.20;;;7.70;99.90;;;;;;5049780;28;20032;-78
2023/01/15 04:36:54;;;;;;;1.55;0.28;;;7.70;99.90;;;;;;5069905;28;20068;-77
2023/01/15 04:39:21;;;;;;;0.20;0.20;;;7.70;99.90;;;;;;5067827;28;20024;-77
2023/01/15 04:44:34;;;;;;;0.52;0.30;;;7.70;99.90;;;;;;5067074;28;20121;-77
2023/01/15 04:47:00;;;;;;;0.20;0.20;;;7.70;99.90;;;;;;5064861;28;20025;-77
2023/01/15 04:49:27;;;;;;;0.50;0.20;;;7.70;99.90;;;;;;5067511;28;20373;-76
2023/01/15 04:51:53;;;;;;;1.02;0.20;;;7.70;99.90;;;;;;5055933;28;20033;-75
2023/01/15 04:54:20;;;;;;;0.73;0.20;;;7.60;99.90;;;;;;5068572;28;20119;-76
2023/01/15 04:56:49;;;;;;;0.28;0.20;;;7.60;99.90;;;;;;5053376;28;20059;-76
2023/01/15 04:59:16;;;;;;;1.50;0.32;;;7.60;99.90;;;;;;5071238;28;20033;-77
2023/01/15 05:01:42;;;;;;;0.55;0.30;;;7.60;99.90;;;;;;5070892;28;20020;-76
2023/01/15 05:04:08;;;;;;;0.35;0.25;;;7.60;99.90;;;;;;5070750;28;20489;-77
2023/01/15 05:06:34;;;;;;;0.50;0.20;;;7.60;99.90;;;;;;5060295;28;20024;-74
2023/01/15 05:09:01;;;;;;;1.02;0.22;;;7.60;99.90;;;;;;5070993;28;20029;-75
2023/01/15 05:11:27;;;;;;;2.58;0.40;;;7.60;99.90;;;;;;5070691;28;20086;-75
2023/01/15 05:13:53;;;;;;;0.10;0.10;;;7.60;99.90;;;;;;5050875;28;20056;-76
2023/01/15 05:16:23;;;;;;;1.10;0.30;;;7.60;99.90;;;;;;5070073;28;20039;-77
2023/01/15 05:18:51;;;;;;;0.50;0.20;;;7.70;99.90;;;;;;5064060;28;20515;-76
2023/01/15 05:21:19;;;;;;;1.63;0.30;;;7.70;99.90;;;;;;5070750;28;20365;-78
2023/01/15 05:23:46;;;;;;;0.65;0.20;;;7.70;99.90;;;;;;5042454;28;20028;-78
2023/01/15 05:26:12;;;;;;;0.28;0.28;;;7.70;99.90;;;;;;5050689;28;20623;-77
2023/01/15 05:28:39;;;;;;;0.38;0.20;;;7.70;99.90;;;;;;5046173;28;20080;-77
2023/01/15 05:31:13;;;;;;;0.15;0.15;;;7.60;99.90;;;;;;5069027;28;20041;-76
2023/01/15 05:33:40;;;;;;;0.28;0.20;;;7.60;99.90;;;;;;5061883;28;20051;-77
2023/01/15 05:36:09;;;;;;;2.55;0.30;;;7.60;99.90;;;;;;5070428;28;20094;-76
2023/01/15 05:38:36;;;;;;;0.75;0.30;;;7.60;99.90;;;;;;5061455;28;20048;-77
2023/01/15 05:41:47;;;;;;;0.10;0.10;;;7.70;99.90;;;;;;5070646;28;20497;-77
2023/01/15 05:44:00;;;;;;;1.95;0.28;;;7.70;99.90;;;;;;5067397;28;20064;-75
2023/01/15 05:46:26;;;;;;;0.13;0.13;;;7.70;99.90;;;;;;5074828;28;20058;-77
2023/01/15 05:48:52;;;;;;;0.20;0.20;;;7.70;99.90;;;;;;5072588;28;20028;-77
2023/01/15 05:51:18;;;;;;;0.32;0.30;;;7.70;99.90;;;;;;5054322;28;20447;-77
2023/01/15 05:53:44;;;;;;;0.32;0.30;;;7.80;99.90;;;;;;5070417;28;20021;-77
2023/01/15 05:56:10;;;;;;;0.20;0.20;;;7.80;99.90;;;;;;5066314;28;20040;-78
2023/01/15 05:58:37;;;;;;;0.40;0.30;;;7.80;99.90;;;;;;5071694;28;20048;-78
2023/01/15 06:01:10;;;;;;;0.60;0.20;;;7.80;99.90;;;;;;5068869;28;20056;-77
2023/01/15 06:03:36;;;;;;;0.10;0.10;;;7.80;99.90;;;;;;5051131;28;20547;-77
2023/01/15 06:06:02;;;;;;;0.30;0.20;;;7.90;99.90;;;;;;5055978;28;20116;-77
2023/01/15 06:08:28;;;;;;;0.75;0.20;;;7.90;99.90;;;;;;5069896;28;20024;-78
2023/01/15 06:10:54;;;;;;;0.20;0.20;;;7.90;99.90;;;;;;5063170;28;20400;-78
2023/01/15 06:13:20;;;;;;;1.85;0.30;;;7.90;99.90;;;;;;5038571;28;20036;-78
2023/01/15 06:15:46;;;;;;;0.28;0.13;;;7.90;99.90;;;;;;5046457;28;20036;-78
2023/01/15 06:18:12;;;;;;;1.65;0.20;;;8.00;99.90;;;;;;5068290;28;20032;-77
2023/01/15 06:20:40;;;;;;;2.30;0.30;;;8.00;99.90;;;;;;5034299;28;20086;-78
2023/01/15 06:23:06;;;;;;;0.32;0.20;;;8.00;99.90;;;;;;5063937;28;20393;-78
2023/01/15 06:25:35;;;;;;;0.82;0.30;;;8.00;99.90;;;;;;5044041;28;20036;-78
2023/01/15 06:28:05;;;;;;;3.03;0.22;;;8.00;99.90;;;;;;5045657;28;20033;-78
2023/01/15 06:30:31;;;;;;;0.20;0.20;;;7.90;99.90;;;;;;5062413;28;20104;-78
2023/01/15 06:32:57;;;;;;;1.58;0.10;;;7.90;99.90;;;;;;5055301;28;20044;-78
2023/01/15 06:35:23;;;;;;;0.28;0.20;;;7.90;99.90;;;;;;5070456;28;20446;-78
2023/01/15 06:37:49;;;;;;;0.43;0.10;;;7.90;99.90;;;;;;5051354;28;20230;-78
2023/01/15 06:40:16;;;;;;;0.10;0.10;;;7.80;99.90;;;;;;5074358;28;20088;-78
2023/01/15 06:48:19;;;;;;;0.15;0.05;;;7.40;99.90;;;;;;5071472;28;20031;-78
2023/01/15 06:50:45;;;;;;;0.20;0.05;;;7.20;99.90;;;;;;5068455;28;20020;-78
2023/01/15 06:53:12;;;;;;;1.00;0.20;;;7.10;99.90;;;;;;5072374;28;20036;-78
2023/01/15 06:55:38;;;;;;;0.00;0.00;;;7.00;99.90;;;;;;5056101;28;20036;-78
2023/01/15 06:58:04;;;;;;;0.10;0.10;;;6.90;99.90;;;;;;5057676;28;20063;-78
2023/01/15 07:00:30;;;;;;;0.43;0.10;;;6.70;99.90;;;;;;5073023;28;20044;-77
2023/01/15 07:02:59;;;;;;;0.57;0.10;;;6.70;99.90;;;;;;5053897;28;20124;-78
2023/01/15 07:05:25;;;;;;;0.25;0.00;;;6.60;99.90;;;;;;5080194;28;20073;-77
2023/01/15 07:07:51;;;;;;;0.20;0.10;;;6.50;99.90;;;;;;5059468;28;20040;-78
2023/01/15 07:10:17;;;;;;;0.80;0.43;;;6.50;99.90;;;;;;5055213;28;20063;-78
2023/01/15 07:12:43;;;;;;;0.00;0.00;;;6.40;99.90;;;;;;5055237;28;20719;-78
2023/01/15 07:15:09;;;;;;;0.00;0.00;;;6.40;99.90;;;;;;5073725;28;20029;-78
2023/01/15 07:17:35;;;;;;;0.00;0.00;;;6.30;99.90;;;;;;5066865;28;20102;-77
2023/01/15 07:20:01;;;;;;;0.00;0.00;;;6.30;99.90;;;;;;5080774;28;20473;-77
2023/01/15 07:22:27;;;;;;;0.00;0.00;;;6.20;99.90;;;;;;5057226;28;20036;-78
2023/01/15 07:24:53;;;;;;;0.15;0.00;;;6.20;99.90;;;;;;5052825;28;20115;-77
2023/01/15 07:27:19;;;;;;;0.00;0.00;;;6.20;99.90;;;;;;5037735;28;20098;-77
2023/01/15 07:29:44;;;;;;;0.70;0.10;;;6.10;99.90;;;;;;5021167;28;20025;-78
2023/01/15 07:32:11;;;;;;;0.00;0.00;;;6.10;99.90;;;;;;5049481;28;20059;-78
2023/01/15 07:34:36;;;;;;;0.40;0.20;;;6.00;99.90;;;;;;5068937;28;20033;-78
2023/01/15 07:37:02;;;;;;;0.73;0.13;;;6.00;99.90;;;;;;5070147;28;20086;-78
2023/01/15 07:39:30;;;;;;;0.00;0.00;;;5.90;99.90;;;;;;5052635;28;20068;-78
2023/01/15 07:50:31;;;;;;;1.20;0.00;;;5.70;99.90;;;;;;5053827;28;20032;-78
2023/01/15 07:52:57;;;;;;;;;;;5.80;99.90;;;;;;5070095;28;20032;-77
2023/01/15 07:55:23;;;;;;;0.00;0.00;;;5.70;99.90;;;;;;5069840;28;20275;-78
2023/01/15 07:57:49;;;;;;;0.10;0.08;;;5.70;99.90;;;;;;5032814;28;20130;-77
2023/01/15 08:00:20;;;;;;;2.08;0.10;;;5.70;99.90;;;;;;5066313;28;20029;-78
2023/01/15 08:02:48;;;;;;;0.20;0.10;;;5.60;99.90;;;;;;5018763;28;20033;-78
2023/01/15 08:05:14;;;;;;;0.05;0.00;;;5.60;99.90;;;;;;5049552;28;20087;-78
2023/01/15 08:07:41;;;;;;;0.08;0.03;;;5.60;99.90;;;;;;5038269;28;20032;-77
2023/01/15 08:10:09;;;;;;;0.22;0.00;;;5.50;99.90;;;;;;5058339;28;20094;-77
2023/01/15 08:15:38;;;;;;;0.10;0.10;;;5.50;99.90;;;;;;5030031;28;20090;-77
2023/01/15 08:18:05;;;;;;;1.52;0.00;;;5.50;99.90;;;;;;5071542;28;20517;-77
2023/01/15 08:20:32;;;;;;;0.00;0.00;;;5.50;99.90;;;;;;5038926;28;20233;-77
2023/01/15 08:23:00;;;;;;;0.40;0.10;;;5.50;99.90;;;;;;5053173;28;20031;-77
2023/01/15 08:25:26;;;;;;;4.75;0.20;;;5.40;99.90;;;;;;5053016;28;20088;-77
2023/01/15 08:27:52;;;;;;;0.47;0.05;;;5.40;99.90;;;;;;5054399;28;20063;-77
2023/01/15 08:30:23;;;;;;;0.10;0.00;;;5.40;99.90;;;;;;5044018;28;20077;-77
2023/01/15 08:32:49;;;;;;;0.20;0.10;;;5.40;99.90;;;;;;5059318;28;20055;-77
2023/01/15 08:35:15;;;;;;;0.32;0.00;;;5.40;99.90;;;;;;5053496;28;20489;-76
2023/01/15 08:37:41;;;;;;;0.35;0.08;;;5.40;99.90;;;;;;5072643;28;20093;-77
2023/01/15 08:40:10;;;;;;;0.30;0.00;;;5.30;99.90;;;;;;5069241;28;20700;-77
2023/01/15 08:42:35;;;;;;;0.00;0.00;;;5.30;99.90;;;;;;5066378;28;20545;-76
2023/01/15 08:45:01;;;;;;;0.40;0.13;;;5.30;99.90;;;;;;5053971;28;20028;-78
2023/01/15 08:47:27;;;;;;;0.10;0.10;;;5.30;99.90;;;;;;5072049;28;20024;-78
2023/01/15 08:49:53;;;;;;;2.28;0.50;;;5.20;99.90;;;;;;5075128;28;20035;-78
2023/01/15 08:52:19;;;;;;;0.10;0.10;;;5.20;99.90;;;;;;5056049;28;20082;-77
2023/01/15 08:54:45;;;;;;;1.75;0.50;;;5.20;99.90;;;;;;5054654;28;20024;-77
2023/01/15 08:57:12;;;;;;;0.20;0.10;;;5.20;99.90;;;;;;5070287;28;20455;-78
2023/01/15 08:59:38;;;;;;;1.67;0.30;;;5.20;99.90;;;;;;5057372;28;20033;-77
2023/01/15 09:02:04;;;;;;;0.70;0.20;;;5.20;99.90;;;;;;5052598;28;20041;-77
2023/01/15 09:04:30;;;;;;;0.10;0.10;;;5.30;99.90;;;;;;5057378;28;20474;-76
2023/01/15 09:06:56;;;;;;;0.20;0.10;;;5.30;99.90;;;;;;5071361;28;20040;-76
2023/01/15 09:09:21;;;;;;;0.32;0.10;;;5.20;99.90;;;;;;5053500;28;20111;-78
2023/01/15 09:11:47;;;;;;;1.00;0.40;;;5.20;99.90;;;;;;5075141;28;20025;-76
2023/01/15 09:14:15;;;;;;;0.77;0.60;;;5.20;99.90;;;;;;5037682;28;20032;-76
2023/01/15 09:16:41;;;;;;;6.97;0.80;;;5.20;99.90;;;;;;5050056;28;20036;-78
2023/01/15 09:19:06;;;;;;;0.20;0.20;;;5.20;99.90;;;;;;5071135;28;20096;-77
2023/01/15 09:21:33;;;;;;;0.55;0.28;;;5.20;99.90;;;;;;5071043;28;20040;-78
2023/01/15 09:23:59;;;;;;;0.10;0.10;;;5.30;99.90;;;;;;5050480;28;20033;-76
2023/01/15 09:26:27;;;;;;;0.30;0.20;;;5.30;99.90;;;;;;5059289;28;20047;-77
2023/01/15 09:28:54;;;;;;;0.20;0.20;;;5.30;99.90;;;;;;5085831;28;20035;-77
2023/01/15 09:31:21;;;;;;;0.30;0.10;;;5.30;99.90;;;;;;5072955;28;20017;-78
2023/01/15 09:33:47;;;;;;;1.27;0.13;;;5.30;99.90;;;;;;5068238;28;20055;-78
2023/01/15 09:36:32;;;;;;;0.77;0.68;;;5.30;99.90;;;;;;5070298;28;20044;-78
2023/01/15 09:39:00;;;;;;;0.95;0.43;;;5.30;99.90;;;;;;5070935;28;20021;-78
2023/01/15 09:44:58;;;;;;;1.17;0.38;;;5.30;99.90;;;;;;5069109;28;20477;-78
2023/01/15 09:47:41;;;;;;;0.52;0.20;;;5.30;99.90;;;;;;5053187;28;20093;-78
2023/01/15 09:50:25;;;;;;;0.30;0.30;;;5.30;99.90;;;;;;5071794;28;20024;-77
2023/01/15 09:53:04;;;;;;;0.10;0.10;;;5.30;99.90;;;;;;5055063;28;20028;-78
2023/01/15 09:55:32;;;;;;;0.35;0.22;;;5.30;99.90;;;;;;5045613;28;20036;-77
2023/01/15 09:58:01;;;;;;;23.58;1.17;;;5.30;99.90;;;;;;5068344;28;20033;-77
2023/01/15 10:00:48;;;;;;;0.30;0.10;;;5.30;99.90;;;;;;5052600;28;20101;-77
2023/01/15 10:03:22;;;;;;;0.63;0.10;;;5.20;99.90;;;;;;5057023;28;20032;-77
2023/01/15 10:06:16;;;;;;;0.10;0.00;;;5.20;99.90;;;;;;5073046;28;20024;-76
2023/01/15 10:08:49;;;;;;;0.10;0.10;;;5.20;99.90;;;;;;5061528;28;20472;-76
2023/01/15 10:11:15;;;;;;;0.10;0.10;;;5.10;99.90;;;;;;5069179;28;20566;-76
2023/01/15 10:13:43;;;;;;;0.40;0.28;;;5.10;99.90;;;;;;5082991;28;20036;-77
2023/01/15 10:16:11;;;;;;;0.40;0.20;;;5.00;99.90;;;;;;5075891;28;20036;-78
2023/01/15 10:18:41;;;;;;;0.47;0.10;;;5.00;99.90;;;;;;5055846;28;20032;-77
2023/01/15 10:21:23;;;;;;;0.20;0.10;;;5.00;99.90;;;;;;5076581;28;20036;-77
2023/01/15 10:24:01;;;;;;;0.75;0.08;;;5.00;99.90;;;;;;5069594;28;20397;-76
2023/01/15 10:26:30;;;;;;;1.23;0.00;;;5.00;99.90;;;;;;5058450;28;20555;-76
2023/01/15 10:28:56;;;;;;;0.45;0.30;;;4.90;99.90;;;;;;5054303;28;20044;-77
2023/01/15 10:31:36;;;;;;;1.60;0.30;;;4.90;99.90;;;;;;5041808;28;20483;-77
2023/01/15 10:34:20;;;;;;;0.30;0.20;;;4.80;99.90;;;;;;5055584;28;20114;-77
2023/01/15 10:37:18;;;;;;;0.20;0.10;;;4.80;99.90;;;;;;5070924;28;20537;-77
2023/01/15 10:40:26;;;;;;;0.00;0.00;;;4.80;99.90;;;;;;5070299;28;20055;-77
2023/01/15 10:43:19;;;;;;;0.00;0.00;;;4.70;99.90;;;;;;5070823;28;20097;-76
2023/01/15 10:45:51;;;;;;;0.00;0.00;;;4.60;99.90;;;;;;5077095;28;20059;-76
2023/01/15 10:48:23;;;;;;;2.92;0.17;;;4.60;99.90;;;;;;5052670;28;20437;-77
2023/01/15 10:50:49;;;;;;;0.00;0.00;;;4.60;99.90;;;;;;5056378;28;20163;-77
2023/01/15 10:53:46;;;;;;;0.10;0.10;;;4.60;99.90;;;;;;5066993;28;20374;-77
2023/01/15 10:56:38;;;;;;;0.10;0.08;;;4.60;99.90;;;;;;5065563;28;20047;-76
2023/01/15 10:59:21;;;;;;;0.32;0.10;;;4.50;99.90;;;;;;5047184;28;20036;-76
2023/01/15 11:01:53;;;;;;;0.30;0.30;;;4.60;99.90;;;;;;5027300;28;20040;-76
2023/01/15 11:04:21;;;;;;;0.30;0.20;;;4.50;99.90;;;;;;5035263;28;20037;-76
2023/01/15 11:06:47;;;;;;;0.73;0.20;;;4.50;99.90;;;;;;5050761;28;20024;-77
2023/01/15 11:09:22;;;;;;;0.40;0.20;;;4.50;99.90;;;;;;5065468;28;20155;-76
2023/01/15 11:20:23;;;;;;;0.20;0.10;;;4.40;99.90;;;;;;5071291;28;20595;-78
2023/01/15 11:22:49;;;;;;;1.40;0.03;;;4.40;99.90;;;;;;5067404;28;20028;-77
2023/01/15 11:25:28;;;;;;;0.05;0.00;;;4.40;99.90;;;;;;5051417;28;20024;-76
2023/01/15 11:27:54;;;;;;;0.10;0.10;;;4.40;99.90;;;;;;5044413;28;20027;-76
2023/01/15 11:30:30;;;;;;;0.70;0.10;;;4.50;99.90;;;;;;5054514;28;20484;-76
2023/01/15 11:33:02;;;;;;;0.60;0.20;;;4.50;99.90;;;;;;5033742;28;20032;-78
2023/01/15 11:35:29;;;;;;;0.70;0.10;;;4.50;99.90;;;;;;5052885;28;20032;-77
2023/01/15 11:38:22;;;;;;;0.20;0.10;;;4.50;99.90;;;;;;5049421;28;20047;-77
2023/01/15 11:41:20;;;;;;;0.13;0.10;;;4.40;99.90;;;;;;5061871;28;20119;-77
2023/01/15 11:52:16;;;;;;;0.10;0.10;;;4.30;99.90;;;;;;5061777;28;20037;-77
2023/01/15 11:54:46;;;;;;;0.40;0.10;;;4.30;99.90;;;;;;5072063;28;20078;-76
2023/01/15 11:57:26;;;;;;;0.13;0.13;;;4.30;99.90;;;;;;5051416;28;20094;-76
2023/01/15 11:59:52;;;;;;;0.00;0.00;;;4.30;99.90;;;;;;5062539;28;20044;-77
2023/01/15 12:02:48;;;;;;;0.00;0.00;;;4.30;99.90;;;;;;5069748;28;20024;-75
2023/01/15 12:05:19;;;;;;;0.10;0.10;;;4.30;99.90;;;;;;5060445;28;20406;-77
2023/01/15 12:07:48;;;;;;;0.10;0.10;;;4.30;99.90;;;;;;5062644;28;20492;-76
2023/01/15 12:13:20;;;;;;;1.05;0.00;;;4.10;99.90;;;;;;5059271;28;20143;-77
2023/01/15 12:16:00;;;;;;;0.30;0.20;;;4.10;99.90;;;;;;5065239;28;20485;-77
2023/01/15 12:19:08;;;;;;;0.00;0.00;;;4.10;99.90;;;;;;5062264;28;20109;-78
2023/01/15 12:21:55;;;;;;;0.10;0.10;;;4.10;99.90;;;;;;5062939;28;20021;-77
2023/01/15 12:24:45;;;;;;;0.25;0.10;;;4.00;99.90;;;;;;5047901;28;20078;-75
2023/01/15 12:27:37;;;;;;;0.05;0.03;;;4.00;99.90;;;;;;5060671;28;20051;-76
2023/01/15 12:30:12;;;;;;;0.10;0.10;;;4.00;99.90;;;;;;5028298;28;20099;-78
2023/01/15 12:32:43;;;;;;;0.22;0.22;;;3.90;99.90;;;;;;5063609;28;20554;-78
2023/01/15 12:35:25;;;;;;;1.80;0.30;;;3.90;99.90;;;;;;5063285;28;20624;-77
2023/01/15 12:38:15;;;;;;;0.43;0.20;;;3.80;99.90;;;;;;5057210;28;20039;-77
2023/01/15 12:41:05;;;;;;;0.40;0.20;;;3.80;99.90;;;;;;5069931;28;20090;-77
2023/01/15 12:46:27;;;;;;;0.40;0.30;;;3.70;99.90;;;;;;5064941;28;20036;-77
2023/01/15 12:49:35;;;;;;;0.40;0.20;;;3.70;99.90;;;;;;5064114;28;20036;-76
2023/01/15 12:52:14;;;;;;;47.28;2.47;;;3.70;99.90;;;;;;5048906;28;20024;-76
2023/01/15 12:54:51;;;;;;;0.20;0.20;;;3.60;99.90;;;;;;5064781;28;20636;-77
2023/01/15 12:57:31;;;;;;;0.38;0.15;;;3.60;99.90;;;;;;5062794;28;20032;-75
2023/01/15 13:00:36;;;;;;;0.82;0.30;;;3.60;99.90;;;;;;5060236;28;20036;-77
2023/01/15 13:03:09;;;;;;;0.10;0.10;;;3.60;99.90;;;;;;5063230;28;20068;-77
2023/01/15 13:05:46;;;;;;;2.03;0.03;;;3.50;99.90;;;;;;5064293;28;20013;-75
2023/01/15 13:08:24;;;;;;;0.10;0.00;;;3.50;99.90;;;;;;5061108;28;20033;-76
2023/01/15 13:10:51;;;;;;;0.20;0.20;;;3.40;99.90;;;;;;5040582;28;20560;-76
2023/01/15 13:13:24;;;;;;;0.28;0.03;;;3.40;99.90;;;;;;5059120;28;20032;-76
2023/01/15 13:15:50;;;;;;;0.20;0.10;;;3.40;99.90;;;;;;5064295;28;20548;-77
2023/01/15 13:18:34;;;;;;;0.93;0.05;;;3.30;99.90;;;;;;5069246;28;20024;-77
2023/01/15 13:21:14;;;;;;;0.20;0.10;;;3.30;99.90;;;;;;5064922;28;20032;-77
2023/01/15 13:23:51;;;;;;;0.30;0.20;;;3.30;99.90;;;;;;5047588;28;20036;-77
2023/01/15 13:26:46;;;;;;;2.72;0.15;;;3.20;99.90;;;;;;5055794;28;20024;-77
2023/01/15 13:29:24;;;;;;;0.10;0.10;;;3.20;99.90;;;;;;5045942;28;20424;-77
2023/01/15 13:31:55;;;;;;;0.10;0.10;;;3.20;99.90;;;;;;5069238;28;20111;-77
2023/01/15 13:34:46;;;;;;;0.10;0.03;;;3.20;99.90;;;;;;5052066;28;20036;-77
2023/01/15 13:37:25;;;;;;;0.13;0.10;;;3.20;99.90;;;;;;5059292;28;20060;-76
2023/01/15 13:39:56;;;;;;;0.30;0.20;;;3.20;99.90;;;;;;5054689;28;20027;-77
2023/01/15 13:42:31;;;;;;;0.10;0.10;;;3.10;99.90;;;;;;5066720;28;20028;-76
2023/01/15 13:45:18;;;;;;;0.15;0.10;;;3.10;99.90;;;;;;5069969;28;20643;-77
2023/01/15 13:47:47;;;;;;;2.05;0.20;;;3.10;99.90;;;;;;5077038;28;20108;-77
2023/01/15 13:50:24;;;;;;;0.20;0.20;;;3.10;99.90;;;;;;5073097;28;20384;-77
2023/01/15 13:53:21;;;;;;;0.50;0.17;;;3.00;99.90;;;;;;5076557;28;20037;-77
2023/01/15 13:56:01;;;;;;;0.20;0.10;;;3.00;99.90;;;;;;5075439;28;20039;-77
2023/01/15 13:58:29;;;;;;;0.20;0.20;;;3.00;99.90;;;;;;5063156;28;20032;-75
2023/01/15 14:01:17;;;;;;;0.20;0.20;;;3.00;99.90;;;;;;5078330;28;20032;-76
2023/01/15 14:04:06;;;;;;;0.10;0.10;;;2.90;99.90;;;;;;5070327;28;20048;-76
2023/01/15 14:06:48;;;;;;;0.10;0.10;;;2.90;99.90;;;;;;5074217;28;20039;-78
2023/01/15 14:09:33;;;;;;;0.75;0.20;;;3.00;99.90;;;;;;5047645;28;20385;-77
2023/01/15 14:12:23;;;;;;;0.13;0.13;;;2.90;99.90;;;;;;5067538;28;20036;-77
2023/01/15 14:15:07;;;;;;;1.52;0.15;;;2.90;99.90;;;;;;5069130;28;20033;-78
2023/01/15 14:18:04;;;;;;;0.30;0.30;;;2.90;99.90;;;;;;5070009;28;20033;-78